sensor_id;sensor_type;location;lat;lon;timestamp;P1;durP1;ratioP1;P2;durP2;ratioP2
14292;SDS011;62290;59.420;17.842;2023-06-04T00:01:35;10.68;;;1.73;;
14292;SDS011;62290;59.420;17.842;2023-06-04T00:04:03;5.55;;;1.50;;
14292;SDS011;62290;59.420;17.842;2023-06-04T00:06:31;5.15;;;1.48;;
14292;SDS011;62290;59.420;17.842;2023-06-04T00:08:59;5.15;;;1.52;;
14292;SDS011;62290;59.420;17.842;2023-06-04T00:11:27;2.70;;;1.33;;
14292;SDS011;62290;59.420;17.842;2023-06-04T00:13:57;6.20;;;1.48;;
14292;SDS011;62290;59.420;17.842;2023-06-04T00:16:25;3.72;;;1.40;;
14292;SDS011;62290;59.420;17.842;2023-06-04T00:18:53;2.00;;;1.38;;
14292;SDS011;62290;59.420;17.842;2023-06-04T00:21:21;2.10;;;1.15;;
14292;SDS011;62290;59.420;17.842;2023-06-04T00:23:49;5.28;;;1.23;;
14292;SDS011;62290;59.420;17.842;2023-06-04T00:26:17;5.82;;;1.55;;
14292;SDS011;62290;59.420;17.842;2023-06-04T00:28:47;2.70;;;1.23;;
14292;SDS011;62290;59.420;17.842;2023-06-04T00:31:16;3.22;;;1.70;;
14292;SDS011;62290;59.420;17.842;2023-06-04T00:33:45;3.63;;;2.03;;
14292;SDS011;62290;59.420;17.842;2023-06-04T00:36:13;6.45;;;1.27;;
14292;SDS011;62290;59.420;17.842;2023-06-04T00:38:41;4.45;;;1.45;;
14292;SDS011;62290;59.420;17.842;2023-06-04T00:41:09;4.18;;;1.38;;
14292;SDS011;62290;59.420;17.842;2023-06-04T00:43:37;5.78;;;1.40;;
14292;SDS011;62290;59.420;17.842;2023-06-04T00:46:05;2.83;;;1.42;;
14292;SDS011;62290;59.420;17.842;2023-06-04T00:48:36;3.35;;;1.30;;
14292;SDS011;62290;59.420;17.842;2023-06-04T00:51:05;2.55;;;1.50;;
14292;SDS011;62290;59.420;17.842;2023-06-04T00:53:33;1.58;;;1.20;;
14292;SDS011;62290;59.420;17.842;2023-06-04T00:56:01;5.53;;;1.40;;
14292;SDS011;62290;59.420;17.842;2023-06-04T00:58:32;3.05;;;1.25;;
14292;SDS011;62290;59.420;17.842;2023-06-04T01:01:01;1.80;;;1.20;;
14292;SDS011;62290;59.420;17.842;2023-06-04T01:03:35;1.90;;;1.20;;
14292;SDS011;62290;59.420;17.842;2023-06-04T01:06:11;3.42;;;1.60;;
14292;SDS011;62290;59.420;17.842;2023-06-04T01:08:48;4.55;;;1.50;;
14292;SDS011;62290;59.420;17.842;2023-06-04T01:11:17;1.60;;;1.27;;
14292;SDS011;62290;59.420;17.842;2023-06-04T01:13:46;2.95;;;1.30;;
14292;SDS011;62290;59.420;17.842;2023-06-04T01:16:14;2.22;;;1.15;;
14292;SDS011;62290;59.420;17.842;2023-06-04T01:18:45;1.95;;;1.30;;
14292;SDS011;62290;59.420;17.842;2023-06-04T01:21:14;2.25;;;1.35;;
14292;SDS011;62290;59.420;17.842;2023-06-04T01:23:46;2.10;;;1.42;;
14292;SDS011;62290;59.420;17.842;2023-06-04T01:26:25;3.80;;;1.48;;
14292;SDS011;62290;59.420;17.842;2023-06-04T01:28:55;2.05;;;1.30;;
14292;SDS011;62290;59.420;17.842;2023-06-04T01:31:24;2.13;;;1.30;;
14292;SDS011;62290;59.420;17.842;2023-06-04T01:33:55;2.25;;;1.17;;
14292;SDS011;62290;59.420;17.842;2023-06-04T01:36:24;1.52;;;1.42;;
14292;SDS011;62290;59.420;17.842;2023-06-04T01:38:52;2.35;;;1.45;;
14292;SDS011;62290;59.420;17.842;2023-06-04T01:41:21;4.53;;;1.50;;
14292;SDS011;62290;59.420;17.842;2023-06-04T01:43:49;1.85;;;1.00;;
14292;SDS011;62290;59.420;17.842;2023-06-04T01:46:17;1.05;;;0.90;;
14292;SDS011;62290;59.420;17.842;2023-06-04T01:48:45;2.58;;;1.40;;
14292;SDS011;62290;59.420;17.842;2023-06-04T01:51:17;2.08;;;1.10;;
14292;SDS011;62290;59.420;17.842;2023-06-04T01:53:45;1.83;;;1.17;;
14292;SDS011;62290;59.420;17.842;2023-06-04T01:56:13;1.67;;;1.17;;
14292;SDS011;62290;59.420;17.842;2023-06-04T01:58:41;1.95;;;1.20;;
14292;SDS011;62290;59.420;17.842;2023-06-04T02:01:09;1.30;;;1.15;;
14292;SDS011;62290;59.420;17.842;2023-06-04T02:03:38;4.78;;;1.38;;
14292;SDS011;62290;59.420;17.842;2023-06-04T02:06:07;1.73;;;1.25;;
14292;SDS011;62290;59.420;17.842;2023-06-04T02:08:36;1.30;;;1.00;;
14292;SDS011;62290;59.420;17.842;2023-06-04T02:11:06;1.15;;;1.05;;
14292;SDS011;62290;59.420;17.842;2023-06-04T02:13:35;1.60;;;1.15;;
14292;SDS011;62290;59.420;17.842;2023-06-04T02:16:03;2.85;;;1.10;;
14292;SDS011;62290;59.420;17.842;2023-06-04T02:18:31;1.70;;;1.13;;
14292;SDS011;62290;59.420;17.842;2023-06-04T02:21:01;1.40;;;1.00;;
14292;SDS011;62290;59.420;17.842;2023-06-04T02:23:30;2.03;;;1.20;;
14292;SDS011;62290;59.420;17.842;2023-06-04T02:26:00;1.42;;;1.10;;
14292;SDS011;62290;59.420;17.842;2023-06-04T02:28:28;1.35;;;1.00;;
14292;SDS011;62290;59.420;17.842;2023-06-04T02:30:56;0.98;;;0.70;;
14292;SDS011;62290;59.420;17.842;2023-06-04T02:33:24;1.00;;;0.73;;
14292;SDS011;62290;59.420;17.842;2023-06-04T02:35:52;1.35;;;0.80;;
14292;SDS011;62290;59.420;17.842;2023-06-04T02:38:20;1.05;;;0.90;;
14292;SDS011;62290;59.420;17.842;2023-06-04T02:40:48;3.58;;;0.60;;
14292;SDS011;62290;59.420;17.842;2023-06-04T02:43:18;1.40;;;0.73;;
14292;SDS011;62290;59.420;17.842;2023-06-04T02:45:46;1.08;;;0.80;;
14292;SDS011;62290;59.420;17.842;2023-06-04T02:48:14;1.70;;;0.60;;
14292;SDS011;62290;59.420;17.842;2023-06-04T02:50:42;2.67;;;0.75;;
14292;SDS011;62290;59.420;17.842;2023-06-04T02:53:10;0.93;;;0.70;;
14292;SDS011;62290;59.420;17.842;2023-06-04T02:55:39;1.17;;;0.77;;
14292;SDS011;62290;59.420;17.842;2023-06-04T02:58:08;1.48;;;0.68;;
14292;SDS011;62290;59.420;17.842;2023-06-04T03:00:37;2.67;;;0.90;;
14292;SDS011;62290;59.420;17.842;2023-06-04T03:03:06;1.35;;;0.90;;
14292;SDS011;62290;59.420;17.842;2023-06-04T03:05:35;1.45;;;0.93;;
14292;SDS011;62290;59.420;17.842;2023-06-04T03:08:06;1.10;;;0.77;;
14292;SDS011;62290;59.420;17.842;2023-06-04T03:10:34;1.02;;;0.68;;
14292;SDS011;62290;59.420;17.842;2023-06-04T03:13:02;0.60;;;0.60;;
14292;SDS011;62290;59.420;17.842;2023-06-04T03:15:31;1.52;;;0.63;;
14292;SDS011;62290;59.420;17.842;2023-06-04T03:18:00;2.13;;;0.63;;
14292;SDS011;62290;59.420;17.842;2023-06-04T03:20:28;0.50;;;0.50;;
14292;SDS011;62290;59.420;17.842;2023-06-04T03:22:56;1.42;;;0.80;;
14292;SDS011;62290;59.420;17.842;2023-06-04T03:25:25;0.82;;;0.57;;
14292;SDS011;62290;59.420;17.842;2023-06-04T03:27:53;1.25;;;0.70;;
14292;SDS011;62290;59.420;17.842;2023-06-04T03:30:22;0.75;;;0.75;;
14292;SDS011;62290;59.420;17.842;2023-06-04T03:33:03;0.80;;;0.63;;
14292;SDS011;62290;59.420;17.842;2023-06-04T03:35:32;0.98;;;0.77;;
14292;SDS011;62290;59.420;17.842;2023-06-04T03:38:00;0.70;;;0.65;;
14292;SDS011;62290;59.420;17.842;2023-06-04T03:40:29;0.75;;;0.63;;
14292;SDS011;62290;59.420;17.842;2023-06-04T03:42:57;0.80;;;0.60;;
14292;SDS011;62290;59.420;17.842;2023-06-04T03:45:29;2.80;;;0.70;;
14292;SDS011;62290;59.420;17.842;2023-06-04T03:47:57;1.63;;;0.98;;
14292;SDS011;62290;59.420;17.842;2023-06-04T03:50:28;1.63;;;0.80;;
14292;SDS011;62290;59.420;17.842;2023-06-04T03:52:56;1.17;;;0.47;;
14292;SDS011;62290;59.420;17.842;2023-06-04T03:55:24;1.45;;;0.60;;
14292;SDS011;62290;59.420;17.842;2023-06-04T03:57:53;1.20;;;0.80;;
14292;SDS011;62290;59.420;17.842;2023-06-04T04:00:21;2.00;;;0.50;;
14292;SDS011;62290;59.420;17.842;2023-06-04T04:02:52;0.47;;;0.43;;
14292;SDS011;62290;59.420;17.842;2023-06-04T04:05:24;1.48;;;0.55;;
14292;SDS011;62290;59.420;17.842;2023-06-04T04:07:54;0.80;;;0.68;;
14292;SDS011;62290;59.420;17.842;2023-06-04T04:10:26;0.77;;;0.68;;
14292;SDS011;62290;59.420;17.842;2023-06-04T04:12:54;0.70;;;0.57;;
14292;SDS011;62290;59.420;17.842;2023-06-04T04:15:25;0.70;;;0.50;;
14292;SDS011;62290;59.420;17.842;2023-06-04T04:17:55;0.80;;;0.50;;
14292;SDS011;62290;59.420;17.842;2023-06-04T04:20:23;1.02;;;0.50;;
14292;SDS011;62290;59.420;17.842;2023-06-04T04:22:59;0.60;;;0.52;;
14292;SDS011;62290;59.420;17.842;2023-06-04T04:25:28;1.15;;;0.40;;
14292;SDS011;62290;59.420;17.842;2023-06-04T04:28:01;1.90;;;0.40;;
14292;SDS011;62290;59.420;17.842;2023-06-04T04:30:33;0.63;;;0.50;;
14292;SDS011;62290;59.420;17.842;2023-06-04T04:33:03;1.88;;;0.50;;
14292;SDS011;62290;59.420;17.842;2023-06-04T04:35:37;0.35;;;0.35;;
14292;SDS011;62290;59.420;17.842;2023-06-04T04:38:08;0.63;;;0.57;;
14292;SDS011;62290;59.420;17.842;2023-06-04T04:40:43;0.63;;;0.40;;
14292;SDS011;62290;59.420;17.842;2023-06-04T04:43:15;0.40;;;0.30;;
14292;SDS011;62290;59.420;17.842;2023-06-04T04:45:43;2.80;;;0.50;;
14292;SDS011;62290;59.420;17.842;2023-06-04T04:48:11;0.88;;;0.47;;
14292;SDS011;62290;59.420;17.842;2023-06-04T04:50:39;0.75;;;0.40;;
14292;SDS011;62290;59.420;17.842;2023-06-04T04:53:09;0.50;;;0.40;;
14292;SDS011;62290;59.420;17.842;2023-06-04T04:55:38;1.77;;;0.40;;
14292;SDS011;62290;59.420;17.842;2023-06-04T04:58:06;0.40;;;0.38;;
14292;SDS011;62290;59.420;17.842;2023-06-04T05:00:34;1.15;;;0.38;;
14292;SDS011;62290;59.420;17.842;2023-06-04T05:03:03;0.28;;;0.28;;
14292;SDS011;62290;59.420;17.842;2023-06-04T05:05:31;0.50;;;0.30;;
14292;SDS011;62290;59.420;17.842;2023-06-04T05:08:01;0.35;;;0.30;;
14292;SDS011;62290;59.420;17.842;2023-06-04T05:10:35;0.40;;;0.35;;
14292;SDS011;62290;59.420;17.842;2023-06-04T05:13:04;0.57;;;0.20;;
14292;SDS011;62290;59.420;17.842;2023-06-04T05:15:42;2.20;;;0.30;;
14292;SDS011;62290;59.420;17.842;2023-06-04T05:18:12;0.30;;;0.30;;
14292;SDS011;62290;59.420;17.842;2023-06-04T05:20:42;0.20;;;0.20;;
14292;SDS011;62290;59.420;17.842;2023-06-04T05:23:11;1.13;;;0.43;;
14292;SDS011;62290;59.420;17.842;2023-06-04T05:25:44;1.23;;;0.43;;
14292;SDS011;62290;59.420;17.842;2023-06-04T05:28:12;0.40;;;0.40;;
14292;SDS011;62290;59.420;17.842;2023-06-04T05:30:40;0.30;;;0.30;;
14292;SDS011;62290;59.420;17.842;2023-06-04T05:33:11;0.40;;;0.30;;
14292;SDS011;62290;59.420;17.842;2023-06-04T05:35:51;0.60;;;0.30;;
14292;SDS011;62290;59.420;17.842;2023-06-04T05:38:21;0.35;;;0.20;;
14292;SDS011;62290;59.420;17.842;2023-06-04T05:40:56;1.05;;;0.40;;
14292;SDS011;62290;59.420;17.842;2023-06-04T05:43:29;0.50;;;0.20;;
14292;SDS011;62290;59.420;17.842;2023-06-04T05:45:57;0.63;;;0.40;;
14292;SDS011;62290;59.420;17.842;2023-06-04T05:48:25;0.20;;;0.20;;
14292;SDS011;62290;59.420;17.842;2023-06-04T05:50:53;0.85;;;0.30;;
14292;SDS011;62290;59.420;17.842;2023-06-04T05:53:22;0.52;;;0.38;;
14292;SDS011;62290;59.420;17.842;2023-06-04T05:55:50;1.70;;;0.50;;
14292;SDS011;62290;59.420;17.842;2023-06-04T05:58:20;0.30;;;0.28;;
14292;SDS011;62290;59.420;17.842;2023-06-04T06:00:48;0.30;;;0.28;;
14292;SDS011;62290;59.420;17.842;2023-06-04T06:03:17;0.35;;;0.22;;
14292;SDS011;62290;59.420;17.842;2023-06-04T06:05:47;0.38;;;0.30;;
14292;SDS011;62290;59.420;17.842;2023-06-04T06:08:16;0.65;;;0.40;;
14292;SDS011;62290;59.420;17.842;2023-06-04T06:10:44;1.10;;;0.30;;
14292;SDS011;62290;59.420;17.842;2023-06-04T06:13:13;0.20;;;0.20;;
14292;SDS011;62290;59.420;17.842;2023-06-04T06:15:43;0.30;;;0.30;;
14292;SDS011;62290;59.420;17.842;2023-06-04T06:18:11;0.60;;;0.22;;
14292;SDS011;62290;59.420;17.842;2023-06-04T06:20:39;0.60;;;0.25;;
14292;SDS011;62290;59.420;17.842;2023-06-04T06:23:08;0.20;;;0.20;;
14292;SDS011;62290;59.420;17.842;2023-06-04T06:25:40;0.57;;;0.30;;
14292;SDS011;62290;59.420;17.842;2023-06-04T06:28:14;0.52;;;0.45;;
14292;SDS011;62290;59.420;17.842;2023-06-04T06:30:45;0.20;;;0.20;;
14292;SDS011;62290;59.420;17.842;2023-06-04T06:33:14;2.58;;;0.30;;
14292;SDS011;62290;59.420;17.842;2023-06-04T06:35:42;0.75;;;0.20;;
14292;SDS011;62290;59.420;17.842;2023-06-04T06:38:13;0.45;;;0.30;;
14292;SDS011;62290;59.420;17.842;2023-06-04T06:40:44;0.70;;;0.40;;
14292;SDS011;62290;59.420;17.842;2023-06-04T06:43:12;2.30;;;0.40;;
14292;SDS011;62290;59.420;17.842;2023-06-04T06:45:40;0.50;;;0.30;;
14292;SDS011;62290;59.420;17.842;2023-06-04T06:48:09;0.52;;;0.30;;
14292;SDS011;62290;59.420;17.842;2023-06-04T06:50:38;0.77;;;0.20;;
14292;SDS011;62290;59.420;17.842;2023-06-04T06:53:06;0.88;;;0.25;;
14292;SDS011;62290;59.420;17.842;2023-06-04T06:55:34;0.30;;;0.30;;
14292;SDS011;62290;59.420;17.842;2023-06-04T06:58:02;0.20;;;0.20;;
14292;SDS011;62290;59.420;17.842;2023-06-04T07:00:30;0.52;;;0.20;;
14292;SDS011;62290;59.420;17.842;2023-06-04T07:02:58;1.33;;;0.38;;
14292;SDS011;62290;59.420;17.842;2023-06-04T07:05:28;0.30;;;0.30;;
14292;SDS011;62290;59.420;17.842;2023-06-04T07:07:56;0.50;;;0.20;;
14292;SDS011;62290;59.420;17.842;2023-06-04T07:10:25;0.20;;;0.20;;
14292;SDS011;62290;59.420;17.842;2023-06-04T07:12:53;1.00;;;0.22;;
14292;SDS011;62290;59.420;17.842;2023-06-04T07:15:22;0.80;;;0.30;;
14292;SDS011;62290;59.420;17.842;2023-06-04T07:17:50;0.80;;;0.17;;
14292;SDS011;62290;59.420;17.842;2023-06-04T07:20:18;0.60;;;0.20;;
14292;SDS011;62290;59.420;17.842;2023-06-04T07:22:47;0.90;;;0.40;;
14292;SDS011;62290;59.420;17.842;2023-06-04T07:25:15;0.30;;;0.30;;
14292;SDS011;62290;59.420;17.842;2023-06-04T07:27:44;0.20;;;0.20;;
14292;SDS011;62290;59.420;17.842;2023-06-04T07:30:12;0.25;;;0.10;;
14292;SDS011;62290;59.420;17.842;2023-06-04T07:32:40;0.35;;;0.30;;
14292;SDS011;62290;59.420;17.842;2023-06-04T07:35:09;0.30;;;0.30;;
14292;SDS011;62290;59.420;17.842;2023-06-04T07:37:37;5.35;;;0.40;;
14292;SDS011;62290;59.420;17.842;2023-06-04T07:40:07;1.27;;;0.20;;
14292;SDS011;62290;59.420;17.842;2023-06-04T07:42:36;0.20;;;0.20;;
14292;SDS011;62290;59.420;17.842;2023-06-04T07:45:04;2.28;;;0.30;;
14292;SDS011;62290;59.420;17.842;2023-06-04T07:47:32;0.22;;;0.17;;
14292;SDS011;62290;59.420;17.842;2023-06-04T07:50:00;0.93;;;0.30;;
14292;SDS011;62290;59.420;17.842;2023-06-04T07:52:29;0.30;;;0.30;;
14292;SDS011;62290;59.420;17.842;2023-06-04T07:54:57;0.40;;;0.30;;
14292;SDS011;62290;59.420;17.842;2023-06-04T07:57:27;0.47;;;0.20;;
14292;SDS011;62290;59.420;17.842;2023-06-04T07:59:55;1.58;;;0.40;;
14292;SDS011;62290;59.420;17.842;2023-06-04T08:02:23;0.50;;;0.25;;
14292;SDS011;62290;59.420;17.842;2023-06-04T08:04:52;0.40;;;0.20;;
14292;SDS011;62290;59.420;17.842;2023-06-04T08:07:20;0.25;;;0.20;;
14292;SDS011;62290;59.420;17.842;2023-06-04T08:09:48;0.47;;;0.30;;
14292;SDS011;62290;59.420;17.842;2023-06-04T08:12:16;0.25;;;0.25;;
14292;SDS011;62290;59.420;17.842;2023-06-04T08:14:45;0.80;;;0.30;;
14292;SDS011;62290;59.420;17.842;2023-06-04T08:17:13;0.38;;;0.30;;
14292;SDS011;62290;59.420;17.842;2023-06-04T08:19:41;0.32;;;0.20;;
14292;SDS011;62290;59.420;17.842;2023-06-04T08:22:09;0.35;;;0.20;;
14292;SDS011;62290;59.420;17.842;2023-06-04T08:24:39;0.35;;;0.20;;
14292;SDS011;62290;59.420;17.842;2023-06-04T08:27:07;1.20;;;0.25;;
14292;SDS011;62290;59.420;17.842;2023-06-04T08:29:35;0.68;;;0.20;;
14292;SDS011;62290;59.420;17.842;2023-06-04T08:32:05;1.35;;;0.25;;
14292;SDS011;62290;59.420;17.842;2023-06-04T08:34:34;0.45;;;0.32;;
14292;SDS011;62290;59.420;17.842;2023-06-04T08:37:02;0.50;;;0.50;;
14292;SDS011;62290;59.420;17.842;2023-06-04T08:39:30;0.68;;;0.32;;
14292;SDS011;62290;59.420;17.842;2023-06-04T08:42:00;0.20;;;0.20;;
14292;SDS011;62290;59.420;17.842;2023-06-04T08:44:31;0.43;;;0.25;;
14292;SDS011;62290;59.420;17.842;2023-06-04T08:47:01;0.30;;;0.30;;
14292;SDS011;62290;59.420;17.842;2023-06-04T08:49:34;0.52;;;0.20;;
14292;SDS011;62290;59.420;17.842;2023-06-04T08:52:04;1.27;;;0.40;;
14292;SDS011;62290;59.420;17.842;2023-06-04T08:54:33;0.40;;;0.30;;
14292;SDS011;62290;59.420;17.842;2023-06-04T08:57:01;0.20;;;0.20;;
14292;SDS011;62290;59.420;17.842;2023-06-04T08:59:30;0.30;;;0.30;;
14292;SDS011;62290;59.420;17.842;2023-06-04T09:01:59;0.30;;;0.30;;
14292;SDS011;62290;59.420;17.842;2023-06-04T09:04:27;0.20;;;0.20;;
14292;SDS011;62290;59.420;17.842;2023-06-04T09:06:58;0.40;;;0.30;;
14292;SDS011;62290;59.420;17.842;2023-06-04T09:09:29;0.50;;;0.30;;
14292;SDS011;62290;59.420;17.842;2023-06-04T09:11:58;0.73;;;0.30;;
14292;SDS011;62290;59.420;17.842;2023-06-04T09:14:31;0.75;;;0.30;;
14292;SDS011;62290;59.420;17.842;2023-06-04T09:16:59;1.75;;;0.30;;
14292;SDS011;62290;59.420;17.842;2023-06-04T09:19:27;0.20;;;0.20;;
14292;SDS011;62290;59.420;17.842;2023-06-04T09:21:56;0.25;;;0.20;;
14292;SDS011;62290;59.420;17.842;2023-06-04T09:24:38;10.05;;;3.28;;
14292;SDS011;62290;59.420;17.842;2023-06-04T09:27:10;595.70;;;344.00;;
14292;SDS011;62290;59.420;17.842;2023-06-04T09:29:39;572.38;;;330.83;;
14292;SDS011;62290;59.420;17.842;2023-06-04T09:32:07;479.17;;;282.23;;
14292;SDS011;62290;59.420;17.842;2023-06-04T09:34:35;456.17;;;292.75;;
14292;SDS011;62290;59.420;17.842;2023-06-04T09:37:14;469.73;;;325.02;;
14292;SDS011;62290;59.420;17.842;2023-06-04T09:39:43;394.15;;;282.67;;
14292;SDS011;62290;59.420;17.842;2023-06-04T09:42:19;301.25;;;203.45;;
14292;SDS011;62290;59.420;17.842;2023-06-04T09:44:48;191.85;;;125.90;;
14292;SDS011;62290;59.420;17.842;2023-06-04T09:47:16;151.77;;;94.47;;
14292;SDS011;62290;59.420;17.842;2023-06-04T09:49:44;103.88;;;67.97;;
14292;SDS011;62290;59.420;17.842;2023-06-04T09:52:15;88.40;;;55.33;;
14292;SDS011;62290;59.420;17.842;2023-06-04T09:54:44;82.90;;;47.58;;
14292;SDS011;62290;59.420;17.842;2023-06-04T09:57:15;66.38;;;39.58;;
14292;SDS011;62290;59.420;17.842;2023-06-04T09:59:45;54.08;;;30.65;;
14292;SDS011;62290;59.420;17.842;2023-06-04T10:02:19;44.05;;;26.52;;
14292;SDS011;62290;59.420;17.842;2023-06-04T10:04:50;36.13;;;23.27;;
14292;SDS011;62290;59.420;17.842;2023-06-04T10:07:23;34.42;;;19.27;;
14292;SDS011;62290;59.420;17.842;2023-06-04T10:09:52;28.73;;;18.50;;
14292;SDS011;62290;59.420;17.842;2023-06-04T10:12:23;24.88;;;15.07;;
14292;SDS011;62290;59.420;17.842;2023-06-04T10:14:56;21.48;;;13.60;;
14292;SDS011;62290;59.420;17.842;2023-06-04T10:17:29;18.42;;;11.95;;
14292;SDS011;62290;59.420;17.842;2023-06-04T10:19:58;26.23;;;13.70;;
14292;SDS011;62290;59.420;17.842;2023-06-04T10:22:33;16.88;;;10.02;;
14292;SDS011;62290;59.420;17.842;2023-06-04T10:25:02;16.65;;;9.15;;
14292;SDS011;62290;59.420;17.842;2023-06-04T10:27:31;13.52;;;8.45;;
14292;SDS011;62290;59.420;17.842;2023-06-04T10:30:01;16.15;;;8.35;;
14292;SDS011;62290;59.420;17.842;2023-06-04T10:32:30;14.32;;;7.32;;
14292;SDS011;62290;59.420;17.842;2023-06-04T10:34:59;12.23;;;6.60;;
14292;SDS011;62290;59.420;17.842;2023-06-04T10:37:34;8.95;;;5.97;;
14292;SDS011;62290;59.420;17.842;2023-06-04T10:40:03;9.13;;;5.45;;
14292;SDS011;62290;59.420;17.842;2023-06-04T10:42:37;9.23;;;5.07;;
14292;SDS011;62290;59.420;17.842;2023-06-04T10:45:06;6.40;;;4.03;;
14292;SDS011;62290;59.420;17.842;2023-06-04T10:47:36;7.88;;;4.90;;
14292;SDS011;62290;59.420;17.842;2023-06-04T10:50:08;5.70;;;3.65;;
14292;SDS011;62290;59.420;17.842;2023-06-04T10:52:49;5.28;;;3.05;;
14292;SDS011;62290;59.420;17.842;2023-06-04T10:55:18;4.10;;;3.05;;
14292;SDS011;62290;59.420;17.842;2023-06-04T10:57:53;6.47;;;3.40;;
14292;SDS011;62290;59.420;17.842;2023-06-04T11:00:22;7.68;;;4.07;;
14292;SDS011;62290;59.420;17.842;2023-06-04T11:03:02;6.60;;;3.97;;
14292;SDS011;62290;59.420;17.842;2023-06-04T11:05:35;5.43;;;2.85;;
14292;SDS011;62290;59.420;17.842;2023-06-04T11:08:05;7.80;;;4.03;;
14292;SDS011;62290;59.420;17.842;2023-06-04T11:10:35;4.47;;;2.97;;
14292;SDS011;62290;59.420;17.842;2023-06-04T11:13:04;4.88;;;2.78;;
14292;SDS011;62290;59.420;17.842;2023-06-04T11:15:39;4.47;;;2.65;;
14292;SDS011;62290;59.420;17.842;2023-06-04T11:18:12;3.83;;;2.63;;
14292;SDS011;62290;59.420;17.842;2023-06-04T11:20:41;4.00;;;2.30;;
14292;SDS011;62290;59.420;17.842;2023-06-04T11:23:12;4.05;;;2.47;;
14292;SDS011;62290;59.420;17.842;2023-06-04T11:25:42;3.05;;;1.85;;
14292;SDS011;62290;59.420;17.842;2023-06-04T11:28:15;2.53;;;1.85;;
14292;SDS011;62290;59.420;17.842;2023-06-04T11:30:55;4.13;;;1.80;;
14292;SDS011;62290;59.420;17.842;2023-06-04T11:33:24;2.33;;;1.73;;
14292;SDS011;62290;59.420;17.842;2023-06-04T11:35:52;3.15;;;1.80;;
14292;SDS011;62290;59.420;17.842;2023-06-04T11:38:21;2.80;;;1.65;;
14292;SDS011;62290;59.420;17.842;2023-06-04T11:40:58;3.78;;;2.00;;
14292;SDS011;62290;59.420;17.842;2023-06-04T11:43:29;2.47;;;1.73;;
14292;SDS011;62290;59.420;17.842;2023-06-04T11:45:59;2.25;;;1.40;;
14292;SDS011;62290;59.420;17.842;2023-06-04T11:48:37;2.55;;;1.70;;
14292;SDS011;62290;59.420;17.842;2023-06-04T11:51:06;2.65;;;1.30;;
14292;SDS011;62290;59.420;17.842;2023-06-04T11:53:37;1.75;;;1.08;;
14292;SDS011;62290;59.420;17.842;2023-06-04T11:56:06;2.83;;;1.27;;
14292;SDS011;62290;59.420;17.842;2023-06-04T11:58:34;5.00;;;4.20;;
14292;SDS011;62290;59.420;17.842;2023-06-04T12:01:03;3.85;;;2.90;;
14292;SDS011;62290;59.420;17.842;2023-06-04T12:03:35;2.75;;;1.58;;
14292;SDS011;62290;59.420;17.842;2023-06-04T12:06:11;1.77;;;1.20;;
14292;SDS011;62290;59.420;17.842;2023-06-04T12:08:50;1.30;;;1.10;;
14292;SDS011;62290;59.420;17.842;2023-06-04T12:11:29;1.13;;;0.93;;
14292;SDS011;62290;59.420;17.842;2023-06-04T12:13:59;1.85;;;1.13;;
14292;SDS011;62290;59.420;17.842;2023-06-04T12:16:28;1.75;;;1.00;;
14292;SDS011;62290;59.420;17.842;2023-06-04T12:19:06;0.85;;;0.80;;
14292;SDS011;62290;59.420;17.842;2023-06-04T12:21:35;1.70;;;1.20;;
14292;SDS011;62290;59.420;17.842;2023-06-04T12:24:08;1.77;;;1.00;;
14292;SDS011;62290;59.420;17.842;2023-06-04T12:26:37;1.73;;;1.08;;
14292;SDS011;62290;59.420;17.842;2023-06-04T12:29:07;1.65;;;0.90;;
14292;SDS011;62290;59.420;17.842;2023-06-04T12:31:38;0.88;;;0.63;;
14292;SDS011;62290;59.420;17.842;2023-06-04T12:34:06;0.80;;;0.80;;
14292;SDS011;62290;59.420;17.842;2023-06-04T12:36:35;1.50;;;0.90;;
14292;SDS011;62290;59.420;17.842;2023-06-04T12:39:03;1.20;;;0.90;;
14292;SDS011;62290;59.420;17.842;2023-06-04T12:41:35;0.70;;;0.68;;
14292;SDS011;62290;59.420;17.842;2023-06-04T12:44:03;2.42;;;0.77;;
14292;SDS011;62290;59.420;17.842;2023-06-04T12:46:31;0.98;;;0.70;;
14292;SDS011;62290;59.420;17.842;2023-06-04T12:48:59;1.52;;;0.90;;
14292;SDS011;62290;59.420;17.842;2023-06-04T12:51:27;1.55;;;0.90;;
14292;SDS011;62290;59.420;17.842;2023-06-04T12:53:55;1.45;;;0.55;;
14292;SDS011;62290;59.420;17.842;2023-06-04T12:56:23;1.15;;;0.70;;
14292;SDS011;62290;59.420;17.842;2023-06-04T12:58:54;0.68;;;0.65;;
14292;SDS011;62290;59.420;17.842;2023-06-04T13:01:22;0.52;;;0.50;;
14292;SDS011;62290;59.420;17.842;2023-06-04T13:03:53;4.05;;;0.82;;
14292;SDS011;62290;59.420;17.842;2023-06-04T13:06:22;0.73;;;0.60;;
14292;SDS011;62290;59.420;17.842;2023-06-04T13:08:50;1.77;;;0.70;;
14292;SDS011;62290;59.420;17.842;2023-06-04T13:11:18;2.63;;;0.95;;
14292;SDS011;62290;59.420;17.842;2023-06-04T13:13:46;3.45;;;0.60;;
14292;SDS011;62290;59.420;17.842;2023-06-04T13:16:16;1.05;;;0.68;;
14292;SDS011;62290;59.420;17.842;2023-06-04T13:18:44;2.08;;;0.50;;
14292;SDS011;62290;59.420;17.842;2023-06-04T13:21:12;1.75;;;0.68;;
14292;SDS011;62290;59.420;17.842;2023-06-04T13:23:40;3.67;;;0.50;;
14292;SDS011;62290;59.420;17.842;2023-06-04T13:26:14;1.63;;;0.77;;
14292;SDS011;62290;59.420;17.842;2023-06-04T13:28:42;10.45;;;0.80;;
14292;SDS011;62290;59.420;17.842;2023-06-04T13:31:10;3.92;;;0.80;;
14292;SDS011;62290;59.420;17.842;2023-06-04T13:33:39;4.85;;;0.90;;
14292;SDS011;62290;59.420;17.842;2023-06-04T13:36:07;5.75;;;1.08;;
14292;SDS011;62290;59.420;17.842;2023-06-04T13:38:36;1.02;;;0.50;;
14292;SDS011;62290;59.420;17.842;2023-06-04T13:41:04;3.03;;;1.20;;
14292;SDS011;62290;59.420;17.842;2023-06-04T13:43:32;2.28;;;0.98;;
14292;SDS011;62290;59.420;17.842;2023-06-04T13:46:00;7.57;;;0.98;;
14292;SDS011;62290;59.420;17.842;2023-06-04T13:48:28;2.22;;;0.60;;
14292;SDS011;62290;59.420;17.842;2023-06-04T13:50:58;2.25;;;0.63;;
14292;SDS011;62290;59.420;17.842;2023-06-04T13:53:26;2.60;;;0.50;;
14292;SDS011;62290;59.420;17.842;2023-06-04T13:55:54;2.92;;;0.80;;
14292;SDS011;62290;59.420;17.842;2023-06-04T13:58:24;1.48;;;0.70;;
14292;SDS011;62290;59.420;17.842;2023-06-04T14:00:53;2.72;;;0.80;;
14292;SDS011;62290;59.420;17.842;2023-06-04T14:03:22;0.75;;;0.50;;
14292;SDS011;62290;59.420;17.842;2023-06-04T14:05:50;1.15;;;0.50;;
14292;SDS011;62290;59.420;17.842;2023-06-04T14:08:19;1.27;;;0.45;;
14292;SDS011;62290;59.420;17.842;2023-06-04T14:10:47;3.30;;;0.50;;
14292;SDS011;62290;59.420;17.842;2023-06-04T14:13:18;4.03;;;0.65;;
14292;SDS011;62290;59.420;17.842;2023-06-04T14:15:46;0.98;;;0.40;;
14292;SDS011;62290;59.420;17.842;2023-06-04T14:18:14;0.70;;;0.40;;
14292;SDS011;62290;59.420;17.842;2023-06-04T14:20:43;0.50;;;0.40;;
14292;SDS011;62290;59.420;17.842;2023-06-04T14:23:11;1.13;;;0.50;;
14292;SDS011;62290;59.420;17.842;2023-06-04T14:25:40;0.57;;;0.43;;
14292;SDS011;62290;59.420;17.842;2023-06-04T14:28:08;1.00;;;0.50;;
14292;SDS011;62290;59.420;17.842;2023-06-04T14:30:36;1.45;;;0.50;;
14292;SDS011;62290;59.420;17.842;2023-06-04T14:33:04;1.38;;;0.50;;
14292;SDS011;62290;59.420;17.842;2023-06-04T14:35:32;1.77;;;0.50;;
14292;SDS011;62290;59.420;17.842;2023-06-04T14:38:00;1.27;;;0.52;;
14292;SDS011;62290;59.420;17.842;2023-06-04T14:40:28;0.40;;;0.40;;
14292;SDS011;62290;59.420;17.842;2023-06-04T14:42:58;0.60;;;0.40;;
14292;SDS011;62290;59.420;17.842;2023-06-04T14:45:26;0.45;;;0.40;;